Time;durP1;ratioP1;P1;durP2;ratioP2;P2;SDS_P1;SDS_P2;PMS_P1;PMS_P2;Temp;Humidity;BMP_temperature;BMP_pressure;BME280_temperature;BME280_humidity;BME280_pressure;Samples;Min_cycle;Max_cycle;Signal;HPM_P1;HPM_P2
2023/05/03 00:02:16;;;;;;;7.53;2.85;;;384.90;2201.60;;;;;;5027054;28;20053;-71
2023/05/03 00:04:45;;;;;;;4.60;2.80;;;384.90;2176.00;;;;;;5030579;28;20057;-71
2023/05/03 00:07:10;;;;;;;6.07;3.00;;;384.90;2176.00;;;;;;5026363;28;20025;-71
2023/05/03 00:09:36;;;;;;;6.63;2.53;;;384.90;2176.00;;;;;;5031904;28;20381;-71
2023/05/03 00:12:04;;;;;;;5.38;2.78;;;384.90;2201.60;;;;;;5023061;28;20030;-71
2023/05/03 00:14:30;;;;;;;7.03;3.42;;;384.90;2150.40;;;;;;5026712;28;20024;-71
2023/05/03 00:16:56;;;;;;;11.65;3.50;;;384.90;2124.80;;;;;;5025846;28;20452;-71
2023/05/03 00:19:28;;;;;;;7.82;3.17;;;409.60;2176.00;;;;;;5024622;28;20024;-71
2023/05/03 00:21:54;;;;;;;7.10;2.50;;;409.70;2176.00;;;;;;5028076;28;20027;-71
2023/05/03 00:24:20;;;;;;;6.93;3.28;;;409.70;2201.60;;;;;;5024922;28;20030;-71
2023/05/03 00:26:46;;;;;;;5.20;2.22;;;409.70;2176.00;;;;;;5028220;28;20021;-72
2023/05/03 00:29:11;;;;;;;7.18;2.80;;;409.70;2150.40;;;;;;5031161;28;20425;-71
2023/05/03 00:31:37;;;;;;;5.25;2.28;;;409.70;2073.60;;;;;;5029329;28;20385;-71
2023/05/03 00:34:02;;;;;;;5.90;2.60;;;409.70;2048.00;;;;;;5022118;28;20033;-71
2023/05/03 00:36:29;;;;;;;5.90;2.08;;;409.80;2022.40;;;;;;5029981;28;20025;-71
2023/05/03 00:38:55;;;;;;;7.88;2.65;;;409.80;1971.20;;;;;;5026958;28;20029;-71
2023/05/03 00:41:23;;;;;;;4.85;2.25;;;409.90;1971.20;;;;;;5028449;28;20029;-71
2023/05/03 00:43:49;;;;;;;6.38;1.90;;;410.00;1945.60;;;;;;5021745;28;20022;-72
2023/05/03 00:46:14;;;;;;;5.20;2.83;;;410.00;1920.00;;;;;;5031465;28;20021;-71
2023/05/03 00:48:40;;;;;;;4.93;2.25;;;410.00;1920.00;;;;;;5017171;28;20057;-71
2023/05/03 00:51:07;;;;;;;5.28;2.42;;;410.00;1920.00;;;;;;5019842;28;20080;-71
2023/05/03 00:53:33;;;;;;;4.45;2.28;;;410.00;1920.00;;;;;;5032884;28;20065;-71
2023/05/03 00:56:00;;;;;;;3.75;2.35;;;410.00;1945.60;;;;;;5033438;28;20021;-71
2023/05/03 00:58:26;;;;;;;3.90;2.13;;;410.00;1945.60;;;;;;5033077;28;20110;-72
2023/05/03 01:00:52;;;;;;;3.88;1.90;;;410.10;1971.20;;;;;;5032556;28;20489;-76
2023/05/03 01:03:17;;;;;;;4.05;2.17;;;410.20;1945.60;;;;;;5033101;28;20033;-71
2023/05/03 01:06:05;;;;;;;3.55;2.00;;;410.20;1971.20;;;;;;5032691;28;20025;-71
2023/05/03 01:08:39;;;;;;;5.32;1.95;;;410.20;1996.80;;;;;;5032953;28;20071;-72
2023/05/03 01:11:15;;;;;;;6.70;2.45;;;410.20;2022.40;;;;;;5032938;28;20026;-72
2023/05/03 01:14:03;;;;;;;4.90;2.95;;;410.20;2048.00;;;;;;5032840;28;20112;-71
2023/05/03 01:16:50;;;;;;;4.80;2.17;;;410.00;2073.60;;;;;;5032987;28;20035;-72
2023/05/03 01:19:27;;;;;;;;;;;410.00;2099.20;;;;;;5033259;28;20037;-71
2023/05/03 01:22:23;;;;;;;4.03;2.65;;;410.00;2124.80;;;;;;5032636;28;19905;-72
2023/05/03 01:25:15;;;;;;;4.73;2.00;;;409.90;2099.20;;;;;;5031722;28;20041;-73
2023/05/03 01:27:41;;;;;;;9.85;2.30;;;410.00;2099.20;;;;;;5032032;28;20417;-71
2023/05/03 01:30:10;;;;;;;5.57;2.20;;;410.00;2073.60;;;;;;5032758;28;20033;-72
2023/05/03 01:32:45;;;;;;;9.23;2.15;;;410.10;2099.20;;;;;;5032964;28;20049;-72
2023/05/03 01:35:11;;;;;;;5.32;2.53;;;410.20;2048.00;;;;;;5020726;28;20100;-75
2023/05/03 01:37:38;;;;;;;4.28;2.30;;;410.20;2073.60;;;;;;5032767;28;20537;-71
2023/05/03 01:40:07;;;;;;;4.80;2.20;;;410.20;2099.20;;;;;;5032950;28;20018;-72
2023/05/03 01:42:36;;;;;;;4.72;2.45;;;410.20;2099.20;;;;;;5032914;28;20044;-77
2023/05/03 01:45:04;;;;;;;5.60;2.20;;;410.30;2099.20;;;;;;5032760;28;20028;-73
2023/05/03 01:47:29;;;;;;;5.00;2.70;;;410.40;2048.00;;;;;;5019464;28;20017;-72
2023/05/03 01:49:55;;;;;;;5.75;2.50;;;410.40;2022.40;;;;;;5032610;28;20104;-72
2023/05/03 01:52:22;;;;;;;5.20;2.47;;;410.30;2048.00;;;;;;5030647;28;20033;-71
2023/05/03 01:54:48;;;;;;;5.57;2.30;;;410.20;2124.80;;;;;;5032863;28;20501;-72
2023/05/03 01:57:13;;;;;;;6.85;2.67;;;410.20;2099.20;;;;;;5036089;28;20072;-71
2023/05/03 01:59:39;;;;;;;6.20;2.55;;;410.10;2150.40;;;;;;5036039;28;20473;-71
2023/05/03 02:02:05;;;;;;;10.85;2.63;;;410.20;2124.80;;;;;;5036208;28;20481;-71
2023/05/03 02:04:31;;;;;;;5.93;2.58;;;410.20;2176.00;;;;;;5035977;28;20025;-71
2023/05/03 02:06:56;;;;;;;5.00;2.08;;;410.30;2150.40;;;;;;5035874;28;20025;-71
2023/05/03 02:09:23;;;;;;;6.28;2.70;;;410.30;2124.80;;;;;;5036007;28;20021;-72
2023/05/03 02:11:49;;;;;;;4.72;2.33;;;410.20;2124.80;;;;;;5035801;28;20018;-71
2023/05/03 02:14:15;;;;;;;7.43;2.80;;;410.20;2150.40;;;;;;5035768;28;20545;-71
2023/05/03 02:16:40;;;;;;;4.35;2.30;;;410.20;2150.40;;;;;;5029207;28;20029;-71
2023/05/03 02:19:07;;;;;;;5.82;3.00;;;410.20;2176.00;;;;;;5029130;28;20119;-71
2023/05/03 02:21:33;;;;;;;4.80;2.85;;;410.00;2227.20;;;;;;5035913;28;20032;-71
2023/05/03 02:23:59;;;;;;;4.63;2.35;;;409.90;2278.40;;;;;;5035491;28;20033;-72
2023/05/03 02:26:25;;;;;;;5.18;2.95;;;409.70;2278.40;;;;;;5035671;28;20108;-71
2023/05/03 02:28:51;;;;;;;9.55;3.95;;;409.60;2329.60;;;;;;5035614;28;20040;-75
2023/05/03 02:31:17;;;;;;;7.05;2.95;;;384.90;2329.60;;;;;;5035556;28;20065;-72
2023/05/03 02:33:42;;;;;;;8.68;3.13;;;384.90;2329.60;;;;;;5035453;28;20028;-72
2023/05/03 02:36:08;;;;;;;6.72;2.47;;;384.80;2329.60;;;;;;5035425;28;20033;-72
2023/05/03 02:38:34;;;;;;;11.60;3.10;;;384.90;2329.60;;;;;;5035111;28;20076;-72
2023/05/03 02:40:59;;;;;;;10.90;2.83;;;384.90;2329.60;;;;;;5035357;28;20053;-72
2023/05/03 02:43:25;;;;;;;6.75;2.60;;;384.90;2329.60;;;;;;5035291;28;20068;-72
2023/05/03 02:45:51;;;;;;;4.53;2.67;;;384.80;2329.60;;;;;;5035198;28;20018;-78
2023/05/03 02:48:17;;;;;;;6.63;2.55;;;384.90;2329.60;;;;;;5035387;28;20025;-72
2023/05/03 02:50:42;;;;;;;4.22;2.45;;;384.80;2329.60;;;;;;5035050;28;20021;-71
2023/05/03 02:53:08;;;;;;;6.03;3.10;;;384.80;2304.00;;;;;;5034914;28;20136;-72
2023/05/03 02:55:34;;;;;;;5.70;2.85;;;384.70;2252.80;;;;;;5028895;28;20148;-71
2023/05/03 02:58:00;;;;;;;8.68;3.25;;;409.60;2304.00;;;;;;5027595;28;20038;-72
2023/05/03 03:00:26;;;;;;;6.50;2.60;;;409.60;2304.00;;;;;;5034986;28;20029;-75
2023/05/03 03:02:51;;;;;;;5.50;2.50;;;409.70;2278.40;;;;;;5034979;28;20030;-72
2023/05/03 03:05:17;;;;;;;9.98;3.50;;;409.70;2278.40;;;;;;5035009;28;20500;-81
2023/05/03 03:07:43;;;;;;;5.32;2.95;;;409.80;2227.20;;;;;;5033930;28;20025;-72
2023/05/03 03:10:09;;;;;;;7.30;2.83;;;409.70;2227.20;;;;;;5034914;28;20037;-72
2023/05/03 03:12:35;;;;;;;7.40;3.10;;;409.70;2252.80;;;;;;5035320;28;20409;-80
2023/05/03 03:15:02;;;;;;;4.35;2.70;;;409.80;2252.80;;;;;;5034918;28;20073;-82
2023/05/03 03:17:28;;;;;;;6.00;2.53;;;409.80;2227.20;;;;;;5034846;28;20413;-72
2023/05/03 03:19:54;;;;;;;7.95;2.92;;;409.80;2227.20;;;;;;5034999;28;20075;-76
2023/05/03 03:22:20;;;;;;;8.95;2.60;;;409.70;2252.80;;;;;;5034553;28;20105;-77
2023/05/03 03:24:45;;;;;;;4.55;2.70;;;409.70;2304.00;;;;;;5035278;28;20388;-72
2023/05/03 03:27:11;;;;;;;6.47;3.38;;;409.70;2278.40;;;;;;5034418;28;20022;-72
2023/05/03 03:29:37;;;;;;;7.70;2.60;;;409.60;2304.00;;;;;;5021727;28;20071;-71
2023/05/03 03:32:02;;;;;;;6.35;3.10;;;409.60;2355.20;;;;;;5034673;28;20022;-80
2023/05/03 03:34:28;;;;;;;8.13;2.83;;;384.90;2329.60;;;;;;5034420;28;20022;-80
2023/05/03 03:36:54;;;;;;;3.42;2.63;;;384.80;2329.60;;;;;;5033067;28;20025;-80
2023/05/03 03:39:20;;;;;;;6.38;3.20;;;384.70;2329.60;;;;;;5034323;28;20063;-80
2023/05/03 03:41:46;;;;;;;5.93;2.65;;;384.70;2329.60;;;;;;5034277;28;20026;-72
2023/05/03 03:44:11;;;;;;;10.10;3.03;;;384.70;2329.60;;;;;;5034411;28;20037;-81
2023/05/03 03:46:37;;;;;;;6.22;3.20;;;384.70;2329.60;;;;;;5034540;28;20103;-72
2023/05/03 03:49:03;;;;;;;8.20;3.30;;;384.70;2329.60;;;;;;5034233;28;20421;-72
2023/05/03 03:51:28;;;;;;;7.32;3.42;;;384.70;2329.60;;;;;;5034097;28;20412;-72
2023/05/03 03:53:54;;;;;;;11.02;3.55;;;384.70;2329.60;;;;;;5033691;28;20063;-72
2023/05/03 03:56:20;;;;;;;5.30;2.90;;;384.70;2329.60;;;;;;5034163;28;20064;-81
2023/05/03 03:58:46;;;;;;;10.52;3.13;;;384.70;2329.60;;;;;;5033945;28;20033;-72
2023/05/03 04:01:12;;;;;;;7.82;2.83;;;384.70;2329.60;;;;;;5034081;28;20169;-72
2023/05/03 04:03:37;;;;;;;7.22;3.65;;;384.70;2329.60;;;;;;5033754;28;20367;-72
2023/05/03 04:06:03;;;;;;;20.88;4.07;;;384.70;2329.60;;;;;;5033997;28;20100;-72
2023/05/03 04:08:29;;;;;;;7.80;4.10;;;384.70;2329.60;;;;;;5033650;28;20076;-81
2023/05/03 04:10:55;;;;;;;7.40;3.40;;;384.70;2329.60;;;;;;5033640;28;20021;-72
2023/05/03 04:13:20;;;;;;;4.15;2.88;;;384.70;2329.60;;;;;;5033579;28;20033;-72
2023/05/03 04:15:46;;;;;;;7.63;3.20;;;384.80;2329.60;;;;;;5021078;28;20462;-73
2023/05/03 04:18:12;;;;;;;7.30;3.38;;;384.90;2329.60;;;;;;5032239;28;20124;-71
2023/05/03 04:20:38;;;;;;;7.05;2.70;;;384.80;2329.60;;;;;;5033723;28;20021;-72
2023/05/03 04:23:03;;;;;;;9.15;3.85;;;384.90;2329.60;;;;;;5033079;28;20422;-82
2023/05/03 04:25:32;;;;;;;10.32;2.67;;;384.90;2329.60;;;;;;5033816;28;20104;-71
2023/05/03 04:27:58;;;;;;;8.90;3.25;;;384.90;2329.60;;;;;;5033292;28;20025;-72
2023/05/03 04:30:24;;;;;;;13.77;4.15;;;384.90;2329.60;;;;;;5033581;28;20038;-82
2023/05/03 04:32:53;;;;;;;6.10;3.00;;;384.90;2329.60;;;;;;5033575;28;20024;-72
2023/05/03 04:35:19;;;;;;;7.10;2.88;;;384.90;2329.60;;;;;;5033664;28;20022;-77
2023/05/03 04:37:45;;;;;;;10.93;3.03;;;384.90;2329.60;;;;;;5033432;28;20033;-82
2023/05/03 04:40:11;;;;;;;4.55;2.90;;;384.90;2329.60;;;;;;5033260;28;20014;-72
2023/05/03 04:42:37;;;;;;;6.53;2.92;;;384.90;2329.60;;;;;;5033562;28;20113;-71
2023/05/03 04:45:05;;;;;;;7.03;3.20;;;409.60;2355.20;;;;;;5033373;28;20385;-71
2023/05/03 04:47:32;;;;;;;7.57;2.80;;;409.60;2355.20;;;;;;5033467;28;20017;-72
2023/05/03 04:49:57;;;;;;;11.32;3.17;;;409.70;2355.20;;;;;;5033476;28;20490;-71
2023/05/03 04:52:24;;;;;;;7.07;3.28;;;409.70;2355.20;;;;;;5032829;28;20117;-76
2023/05/03 04:54:50;;;;;;;7.13;3.17;;;409.70;2355.20;;;;;;5033369;28;20098;-71
2023/05/03 04:57:16;;;;;;;5.00;2.45;;;409.70;2355.20;;;;;;5020186;28;20458;-73
2023/05/03 04:59:42;;;;;;;5.57;2.83;;;409.70;2355.20;;;;;;5033140;28;20068;-71
2023/05/03 05:02:07;;;;;;;6.53;2.67;;;409.70;2355.20;;;;;;5033137;28;20021;-71
2023/05/03 05:04:33;;;;;;;10.85;3.55;;;409.70;2355.20;;;;;;5033288;28;20025;-72
2023/05/03 05:06:59;;;;;;;12.93;2.90;;;409.80;2355.20;;;;;;5033241;28;20128;-74
2023/05/03 05:09:29;;;;;;;15.80;4.93;;;409.80;2355.20;;;;;;5032876;28;20033;-74
2023/05/03 05:11:56;;;;;;;9.77;3.30;;;409.90;2355.20;;;;;;5031661;28;20023;-74
2023/05/03 05:14:21;;;;;;;8.40;4.00;;;409.90;2355.20;;;;;;5031689;28;20053;-74
2023/05/03 05:16:47;;;;;;;12.75;4.22;;;410.00;2355.20;;;;;;5032939;28;20045;-75
2023/05/03 05:19:13;;;;;;;16.73;5.88;;;410.00;2355.20;;;;;;5032697;28;20045;-73
2023/05/03 05:21:39;;;;;;;13.10;3.92;;;410.00;2355.20;;;;;;5029548;28;20018;-73
2023/05/03 05:24:05;;;;;;;6.00;3.38;;;410.00;2355.20;;;;;;5013064;28;20367;-72
2023/05/03 05:26:31;;;;;;;9.93;5.88;;;410.10;2355.20;;;;;;5016487;28;20369;-72
2023/05/03 05:28:57;;;;;;;7.93;3.63;;;410.20;2355.20;;;;;;5032865;28;20013;-73
2023/05/03 05:31:23;;;;;;;7.55;2.85;;;410.20;2355.20;;;;;;5032041;28;20113;-73
2023/05/03 05:33:49;;;;;;;9.88;3.63;;;410.20;2355.20;;;;;;5016794;28;20069;-78
2023/05/03 05:36:15;;;;;;;15.65;3.47;;;410.20;2355.20;;;;;;5016546;28;20018;-73
2023/05/03 05:38:41;;;;;;;5.70;2.95;;;410.20;2355.20;;;;;;5016500;28;20412;-71
2023/05/03 05:41:07;;;;;;;6.88;3.92;;;410.30;2355.20;;;;;;5016448;28;20113;-71
2023/05/03 05:43:32;;;;;;;8.88;3.67;;;410.30;2355.20;;;;;;5024879;28;20025;-72
2023/05/03 05:45:58;;;;;;;8.65;3.33;;;410.40;2355.20;;;;;;5030680;28;20470;-71
2023/05/03 05:48:24;;;;;;;6.95;3.38;;;410.50;2355.20;;;;;;5031428;28;20489;-72
2023/05/03 05:50:50;;;;;;;6.28;2.95;;;410.50;2355.20;;;;;;5021538;28;20017;-71
2023/05/03 05:53:16;;;;;;;6.05;2.28;;;435.20;2355.20;;;;;;5031794;28;20067;-71
2023/05/03 05:55:42;;;;;;;8.38;3.20;;;435.20;2355.20;;;;;;5031579;28;20060;-71
2023/05/03 05:58:08;;;;;;;10.38;3.10;;;435.20;2355.20;;;;;;5031063;28;20438;-71
2023/05/03 06:00:35;;;;;;;14.13;3.35;;;435.30;2355.20;;;;;;5033235;28;20025;-71
2023/05/03 06:03:00;;;;;;;6.18;3.13;;;435.50;2355.20;;;;;;5027316;28;20104;-70
2023/05/03 06:05:26;;;;;;;6.93;2.78;;;435.50;2355.20;;;;;;5029833;28;20148;-71
2023/05/03 06:07:52;;;;;;;6.28;3.35;;;435.60;2355.20;;;;;;5026196;28;20026;-71
2023/05/03 06:10:17;;;;;;;6.82;3.33;;;435.60;2355.20;;;;;;5028475;28;20096;-74
2023/05/03 06:12:43;;;;;;;6.35;3.38;;;435.70;2355.20;;;;;;5035121;28;20022;-71
2023/05/03 06:15:09;;;;;;;6.85;3.50;;;435.80;2355.20;;;;;;5061449;28;20394;-71
2023/05/03 06:17:35;;;;;;;6.70;3.10;;;435.90;2355.20;;;;;;5030545;28;20517;-71
2023/05/03 06:20:01;;;;;;;11.43;3.60;;;435.90;2355.20;;;;;;5030992;28;20461;-71
2023/05/03 06:22:27;;;;;;;6.07;3.53;;;435.90;2252.80;;;;;;5027729;28;20025;-71
2023/05/03 06:24:54;;;;;;;7.35;2.95;;;435.90;2304.00;;;;;;5031739;28;20022;-72
2023/05/03 06:27:20;;;;;;;8.60;2.97;;;436.00;2304.00;;;;;;5026129;28;20071;-72
2023/05/03 06:29:46;;;;;;;7.88;3.50;;;435.90;2176.00;;;;;;5026077;28;20425;-71
2023/05/03 06:32:12;;;;;;;10.40;2.97;;;435.90;2201.60;;;;;;5030718;28;20022;-72
2023/05/03 06:34:38;;;;;;;6.03;3.15;;;435.90;2176.00;;;;;;5029344;28;20056;-69
2023/05/03 06:37:04;;;;;;;6.53;3.03;;;435.90;2201.60;;;;;;5025925;28;20021;-70
2023/05/03 06:39:30;;;;;;;5.72;2.67;;;435.90;2124.80;;;;;;5034441;28;20048;-69
2023/05/03 06:41:55;;;;;;;5.40;2.67;;;435.90;2150.40;;;;;;5029979;28;20099;-69
2023/05/03 06:44:21;;;;;;;7.15;3.03;;;436.00;2150.40;;;;;;5026305;28;20060;-68
2023/05/03 06:46:47;;;;;;;7.60;3.65;;;436.10;2176.00;;;;;;5034310;28;20028;-68
2023/05/03 06:49:12;;;;;;;8.77;3.25;;;436.10;2150.40;;;;;;5029887;28;20138;-71
2023/05/03 06:51:38;;;;;;;4.68;2.70;;;460.80;2201.60;;;;;;5030650;28;20018;-71
2023/05/03 06:54:08;;;;;;;5.10;3.33;;;460.80;2227.20;;;;;;5027598;28;20049;-71
2023/05/03 06:56:35;;;;;;;6.03;3.28;;;460.90;2201.60;;;;;;5028249;28;20494;-71
2023/05/03 06:59:02;;;;;;;8.55;3.53;;;460.90;2176.00;;;;;;5034194;28;20048;-71
2023/05/03 07:01:31;;;;;;;8.02;3.28;;;461.00;2124.80;;;;;;5025140;28;20025;-71
2023/05/03 07:03:57;;;;;;;8.98;2.75;;;461.00;2048.00;;;;;;5028721;28;20029;-72
2023/05/03 07:06:23;;;;;;;6.78;3.05;;;460.90;1996.80;;;;;;5029960;28;20208;-71
2023/05/03 07:08:52;;;;;;;5.82;2.38;;;461.00;1945.60;;;;;;5024916;28;20028;-71
2023/05/03 07:11:22;;;;;;;8.07;3.08;;;461.00;1920.00;;;;;;5034102;28;20017;-71
2023/05/03 07:13:52;;;;;;;8.35;2.92;;;461.10;1945.60;;;;;;5025792;28;20539;-72
2023/05/03 07:16:18;;;;;;;8.60;3.22;;;461.10;1894.40;;;;;;5032919;28;20045;-71
2023/05/03 07:18:45;;;;;;;4.45;2.40;;;461.10;1868.80;;;;;;5028906;28;20029;-71
2023/05/03 07:21:12;;;;;;;11.65;3.28;;;461.10;1817.60;;;;;;5031061;28;20017;-70
2023/05/03 07:23:38;;;;;;;6.82;2.88;;;461.10;1792.00;;;;;;5033633;28;20029;-72
2023/05/03 07:26:03;;;;;;;5.90;2.42;;;461.10;1792.00;;;;;;5026442;28;20029;-71
2023/05/03 07:28:29;;;;;;;8.68;2.90;;;461.10;1817.60;;;;;;5025182;28;20026;-72
2023/05/03 07:30:55;;;;;;;8.07;2.65;;;461.10;1817.60;;;;;;5024145;28;20025;-72
2023/05/03 07:33:21;;;;;;;9.65;3.00;;;461.20;1792.00;;;;;;5026351;28;20100;-73
2023/05/03 07:35:47;;;;;;;7.97;3.25;;;461.10;1766.40;;;;;;5032365;28;20021;-73
2023/05/03 07:38:13;;;;;;;12.32;3.83;;;461.10;1792.00;;;;;;5024774;28;20033;-72
2023/05/03 07:40:40;;;;;;;5.32;2.70;;;461.10;1766.40;;;;;;5024336;28;20295;-73
2023/05/03 07:43:07;;;;;;;5.80;2.65;;;461.00;1740.80;;;;;;5030180;28;20036;-76
2023/05/03 07:45:33;;;;;;;9.45;3.22;;;461.00;1689.60;;;;;;5032207;28;20115;-72
2023/05/03 07:47:58;;;;;;;5.20;2.70;;;461.00;1689.60;;;;;;5024497;28;20029;-72
2023/05/03 07:50:24;;;;;;;10.98;3.17;;;461.00;1715.20;;;;;;5022576;28;20030;-72
2023/05/03 07:52:50;;;;;;;11.07;3.15;;;461.10;1715.20;;;;;;5028156;28;20049;-73
2023/05/03 07:55:19;;;;;;;11.43;3.25;;;461.10;1664.00;;;;;;5033108;28;20080;-72
2023/05/03 07:57:45;;;;;;;6.25;2.35;;;461.00;1664.00;;;;;;5020766;28;20485;-72
2023/05/03 08:00:12;;;;;;;8.07;2.70;;;461.10;1689.60;;;;;;5028911;28;20045;-74
2023/05/03 08:02:38;;;;;;;5.32;2.30;;;461.10;1689.60;;;;;;5028463;28;20061;-72
2023/05/03 08:05:05;;;;;;;8.25;2.47;;;461.10;1715.20;;;;;;5029362;28;20028;-73
2023/05/03 08:07:31;;;;;;;10.35;2.83;;;461.20;1664.00;;;;;;5027722;28;20032;-71
2023/05/03 08:10:01;;;;;;;14.57;3.05;;;461.20;1689.60;;;;;;5025665;28;20029;-71
2023/05/03 08:12:27;;;;;;;7.13;2.97;;;461.20;1664.00;;;;;;5029134;28;20025;-71
2023/05/03 08:14:53;;;;;;;4.65;2.78;;;461.20;1689.60;;;;;;5032802;28;20509;-72
2023/05/03 08:17:19;;;;;;;5.65;2.65;;;461.20;1664.00;;;;;;5025370;28;20101;-72
2023/05/03 08:19:46;;;;;;;6.57;2.50;;;461.20;1664.00;;;;;;5026962;28;20041;-73
2023/05/03 08:22:11;;;;;;;5.88;2.47;;;461.30;1664.00;;;;;;5031168;28;20063;-71
2023/05/03 08:24:41;;;;;;;9.00;3.22;;;461.40;1664.00;;;;;;5027237;28;20451;-72
2023/05/03 08:27:08;;;;;;;8.05;3.15;;;461.40;1689.60;;;;;;5028939;28;20484;-72
2023/05/03 08:29:36;;;;;;;5.55;2.25;;;461.50;1715.20;;;;;;5025817;28;20032;-72
2023/05/03 08:32:03;;;;;;;11.13;3.00;;;461.50;1664.00;;;;;;5024033;28;20045;-73
2023/05/03 08:34:29;;;;;;;9.40;2.60;;;461.40;1664.00;;;;;;5027523;28;20501;-73
2023/05/03 08:36:56;;;;;;;6.90;2.72;;;461.50;1689.60;;;;;;5027506;28;20018;-72
2023/05/03 08:39:25;;;;;;;8.48;2.83;;;461.50;1689.60;;;;;;5029138;28;20117;-72
2023/05/03 08:41:52;;;;;;;12.00;2.90;;;461.50;1689.60;;;;;;5028508;28;20545;-72
2023/05/03 08:44:22;;;;;;;4.78;2.45;;;461.70;1715.20;;;;;;5032625;28;20052;-73
2023/05/03 08:46:51;;;;;;;8.05;2.67;;;461.70;1689.60;;;;;;5027702;28;20031;-75
2023/05/03 08:49:17;;;;;;;7.70;2.55;;;486.40;1689.60;;;;;;5028338;28;20036;-72
2023/05/03 08:51:48;;;;;;;5.63;2.75;;;486.50;1638.40;;;;;;5022719;28;20033;-72
2023/05/03 08:54:15;;;;;;;7.13;3.17;;;486.70;1689.60;;;;;;5031071;28;20052;-72
2023/05/03 08:56:42;;;;;;;7.57;2.60;;;486.80;1664.00;;;;;;5025649;28;20101;-72
2023/05/03 08:59:10;;;;;;;11.40;2.75;;;487.00;1612.80;;;;;;5027574;28;20041;-73
2023/05/03 09:01:40;;;;;;;7.03;2.45;;;487.20;1587.20;;;;;;5031938;28;20030;-74
2023/05/03 09:04:06;;;;;;;10.32;2.80;;;512.30;1587.20;;;;;;5023185;28;20087;-73
2023/05/03 09:06:33;;;;;;;5.80;3.05;;;512.40;1536.00;;;;;;5035295;28;20024;-73
2023/05/03 09:09:00;;;;;;;4.50;2.60;;;512.50;1510.40;;;;;;5027573;28;20026;-72
2023/05/03 09:11:30;;;;;;;10.00;3.35;;;512.30;1459.20;;;;;;5031033;28;20022;-74
2023/05/03 09:14:15;;;;;;;7.90;2.92;;;512.40;1484.80;;;;;;5028328;28;20309;-77
2023/05/03 09:16:45;;;;;;;7.40;2.35;;;512.40;1484.80;;;;;;5029035;28;20067;-74
2023/05/03 09:19:13;;;;;;;6.55;2.85;;;512.40;1459.20;;;;;;5027941;28;20033;-74
2023/05/03 09:21:43;;;;;;;5.53;2.53;;;512.40;1459.20;;;;;;5026902;28;20017;-72
2023/05/03 09:24:16;;;;;;;7.80;2.70;;;512.30;1433.60;;;;;;5032243;28;20026;-75
2023/05/03 09:26:42;;;;;;;14.30;4.00;;;512.30;1433.60;;;;;;5025282;28;20465;-81
2023/05/03 09:29:09;;;;;;;6.40;2.70;;;512.70;1433.60;;;;;;5065713;28;20033;-72
2023/05/03 09:31:36;;;;;;;6.57;2.13;;;512.70;1408.00;;;;;;5032819;28;21223;-71
2023/05/03 09:34:19;;;;;;;7.05;2.42;;;537.70;1484.80;;;;;;5057728;28;20371;-73
2023/05/03 09:36:48;;;;;;;13.35;2.97;;;537.80;1433.60;;;;;;5034878;28;20107;-72
2023/05/03 09:39:18;;;;;;;4.50;2.70;;;537.80;1382.40;;;;;;5029026;28;20095;-73
2023/05/03 09:41:45;;;;;;;4.72;2.53;;;538.10;1382.40;;;;;;5031765;28;20026;-74
2023/05/03 09:44:11;;;;;;;4.95;2.10;;;538.20;1382.40;;;;;;5028548;28;20025;-73
2023/05/03 09:46:37;;;;;;;7.20;2.50;;;538.30;1331.20;;;;;;5028960;28;20101;-74
2023/05/03 09:49:03;;;;;;;8.10;2.58;;;538.10;1305.60;;;;;;5032706;28;20029;-74
2023/05/03 09:51:30;;;;;;;18.65;5.22;;;538.00;1280.00;;;;;;5031038;28;20030;-74
2023/05/03 09:53:57;;;;;;;4.97;2.78;;;538.10;1331.20;;;;;;5024829;28;20038;-74
2023/05/03 09:56:25;;;;;;;5.68;2.65;;;537.90;1331.20;;;;;;5065992;28;20378;-74
2023/05/03 09:58:55;;;;;;;4.30;2.35;;;537.80;1331.20;;;;;;5028657;28;20120;-75
2023/05/03 10:01:22;;;;;;;5.55;2.55;;;537.60;1305.60;;;;;;5031637;28;20029;-74
2023/05/03 10:03:50;;;;;;;7.10;2.47;;;537.60;1331.20;;;;;;5035213;28;20022;-76
2023/05/03 10:06:23;;;;;;;6.32;2.40;;;512.90;1305.60;;;;;;5030177;28;20028;-74
2023/05/03 10:08:59;;;;;;;12.18;3.85;;;512.90;1331.20;;;;;;5033284;28;20060;-74
2023/05/03 10:11:26;;;;;;;8.90;3.58;;;512.90;1331.20;;;;;;5026746;28;20553;-74
2023/05/03 10:13:53;;;;;;;8.23;2.70;;;512.90;1305.60;;;;;;5030030;28;20095;-75
2023/05/03 10:16:30;;;;;;;9.27;2.50;;;512.90;1331.20;;;;;;5030212;28;20064;-75
2023/05/03 10:19:03;;;;;;;6.32;2.70;;;512.90;1331.20;;;;;;5023182;28;20035;-75
2023/05/03 10:21:47;;;;;;;6.88;2.88;;;512.90;1331.20;;;;;;5028365;28;20029;-74
2023/05/03 10:24:17;;;;;;;7.38;2.42;;;537.60;1356.80;;;;;;5030739;28;20087;-74
2023/05/03 10:26:48;;;;;;;11.00;2.75;;;537.90;1382.40;;;;;;5033031;28;20378;-74
2023/05/03 10:29:47;;;;;;;6.63;2.63;;;538.00;1331.20;;;;;;5024441;28;20040;-74
2023/05/03 10:32:41;;;;;;;4.25;2.22;;;537.90;1331.20;;;;;;5028767;28;20046;-74
2023/05/03 10:35:11;;;;;;;5.93;2.95;;;537.80;1305.60;;;;;;5030942;28;20017;-73
2023/05/03 10:37:40;;;;;;;4.45;2.47;;;538.00;1331.20;;;;;;5029453;28;20037;-75
2023/05/03 10:40:16;;;;;;;3.65;2.10;;;538.10;1331.20;;;;;;5030585;28;20034;-74
2023/05/03 10:42:53;;;;;;;;;;;538.20;1305.60;;;;;;5028876;28;20040;-74
2023/05/03 10:45:27;;;;;;;5.80;2.15;;;538.50;1305.60;;;;;;5031037;28;19911;-74
2023/05/03 10:48:11;;;;;;;5.13;2.20;;;563.20;1280.00;;;;;;5032821;28;20017;-74
2023/05/03 10:50:40;;;;;;;4.57;2.22;;;538.50;1280.00;;;;;;5029208;28;20030;-74
2023/05/03 10:53:07;;;;;;;6.85;2.38;;;563.20;1305.60;;;;;;5026663;28;20045;-74
2023/05/03 10:55:33;;;;;;;3.95;2.10;;;563.20;1254.40;;;;;;5032223;28;20487;-74
2023/05/03 10:58:00;;;;;;;4.13;2.25;;;538.50;1254.40;;;;;;5024146;28;20041;-74
2023/05/03 11:00:37;;;;;;;5.82;2.13;;;538.30;1254.40;;;;;;5030483;28;20021;-74
2023/05/03 11:03:44;;;;;;;5.95;2.38;;;538.00;1228.80;;;;;;5025561;28;20022;-75
2023/05/03 11:06:30;;;;;;;5.88;2.00;;;538.00;1254.40;;;;;;5028579;28;20496;-73
2023/05/03 11:08:56;;;;;;;5.95;2.88;;;538.00;1305.60;;;;;;5029861;28;20029;-74
2023/05/03 11:11:22;;;;;;;5.43;2.10;;;538.30;1254.40;;;;;;5021502;28;20379;-75
2023/05/03 11:13:50;;;;;;;9.55;2.80;;;563.70;1305.60;;;;;;5028415;28;20132;-74
2023/05/03 11:16:16;;;;;;;6.35;2.20;;;563.90;1228.80;;;;;;5029725;28;20398;-75
2023/05/03 11:18:42;;;;;;;10.05;2.50;;;589.00;1280.00;;;;;;5025781;28;20030;-73
2023/05/03 11:21:10;;;;;;;8.00;2.30;;;589.30;1228.80;;;;;;5032546;28;20156;-73
2023/05/03 11:23:38;;;;;;;8.35;2.63;;;564.10;1177.60;;;;;;5030041;28;20026;-75
2023/05/03 11:26:08;;;;;;;3.47;2.10;;;564.10;1203.20;;;;;;5022767;28;20030;-74
2023/05/03 11:28:36;;;;;;;6.30;2.33;;;563.40;1228.80;;;;;;5027500;28;20056;-74
2023/05/03 11:31:02;;;;;;;5.00;2.33;;;538.50;1254.40;;;;;;5035401;28;20097;-73
2023/05/03 11:33:30;;;;;;;6.35;2.47;;;538.50;1280.00;;;;;;5030227;28;20064;-73
2023/05/03 11:35:56;;;;;;;5.70;2.45;;;538.30;1254.40;;;;;;5023715;28;20021;-73
2023/05/03 11:38:22;;;;;;;8.77;2.63;;;538.30;1280.00;;;;;;5023930;28;20033;-73
2023/05/03 11:40:47;;;;;;;6.70;2.80;;;538.40;1280.00;;;;;;5033595;28;20381;-74
2023/05/03 11:43:13;;;;;;;6.97;2.28;;;538.50;1280.00;;;;;;5029241;28;20083;-73
2023/05/03 11:45:50;;;;;;;5.05;2.45;;;538.50;1280.00;;;;;;5024758;28;20219;-73
2023/05/03 11:48:16;;;;;;;6.78;2.55;;;563.30;1254.40;;;;;;5027243;28;20037;-73
2023/05/03 11:50:52;;;;;;;10.15;2.72;;;563.30;1280.00;;;;;;5032248;28;20022;-73
2023/05/03 11:53:18;;;;;;;3.25;2.00;;;563.30;1305.60;;;;;;5030558;28;20084;-73
2023/05/03 11:55:46;;;;;;;9.20;2.67;;;563.50;1305.60;;;;;;5030878;28;20478;-73
2023/05/03 11:58:17;;;;;;;4.07;2.42;;;563.40;1254.40;;;;;;5025265;28;20147;-75
2023/05/03 12:00:45;;;;;;;8.07;2.92;;;563.90;1254.40;;;;;;5033083;28;20013;-73
2023/05/03 12:03:34;;;;;;;6.78;2.47;;;563.90;1228.80;;;;;;5027435;28;20032;-73
2023/05/03 12:06:00;;;;;;;4.75;2.58;;;588.80;1254.40;;;;;;5028816;28;20093;-73
2023/05/03 12:08:31;;;;;;;8.15;2.85;;;589.60;1228.80;;;;;;5028612;28;20525;-73
2023/05/03 12:10:57;;;;;;;6.55;2.22;;;589.60;1177.60;;;;;;5026758;28;20477;-74
2023/05/03 12:13:27;;;;;;;6.80;2.85;;;589.70;1203.20;;;;;;5029975;28;20033;-73
2023/05/03 12:15:57;;;;;;;8.65;2.65;;;589.70;1152.00;;;;;;5030380;28;20048;-73
2023/05/03 12:18:23;;;;;;;89.70;45.45;;;589.30;1177.60;;;;;;5021947;28;20034;-74
2023/05/03 12:20:56;;;;;;;10.50;3.38;;;589.10;1228.80;;;;;;5028744;28;20032;-74